createdAt,value
2023-03-22T00:01:46.138Z,92.46
2023-03-22T00:04:12.640Z,92.33
2023-03-22T00:06:39.156Z,92.31
2023-03-22T00:09:05.666Z,92.29
2023-03-22T00:11:32.119Z,92.50
2023-03-22T00:13:58.871Z,92.29
2023-03-22T00:16:25.752Z,92.10
2023-03-22T00:18:52.266Z,92.40
2023-03-22T00:21:18.972Z,92.30
2023-03-22T00:23:46.192Z,91.89
2023-03-22T00:26:14.286Z,92.14
2023-03-22T00:28:42.121Z,91.84
2023-03-22T00:31:09.648Z,91.68
2023-03-22T00:33:36.841Z,91.62
2023-03-22T00:36:09.256Z,91.06
2023-03-22T00:38:42.911Z,91.25
2023-03-22T00:41:18.747Z,91.16
2023-03-22T00:43:46.829Z,91.00
2023-03-22T00:46:15.144Z,91.10
2023-03-22T00:48:42.259Z,91.01
2023-03-22T00:51:09.848Z,91.12
2023-03-22T00:53:42.532Z,91.00
2023-03-22T00:56:13.585Z,91.12
2023-03-22T00:58:47.197Z,91.38
2023-03-22T01:01:14.721Z,91.42
2023-03-22T01:03:42.979Z,91.33
2023-03-22T01:06:13.038Z,91.43
2023-03-22T01:08:40.099Z,91.41
2023-03-22T01:11:08.412Z,91.28
2023-03-22T01:13:38.654Z,91.50
2023-03-22T01:16:06.864Z,91.22
2023-03-22T01:18:34.787Z,91.10
2023-03-22T01:21:01.987Z,91.18
2023-03-22T01:23:28.858Z,91.34
2023-03-22T01:25:55.342Z,91.58
2023-03-22T01:28:21.889Z,91.67
2023-03-22T01:30:48.533Z,91.66
2023-03-22T01:33:15.287Z,91.39
2023-03-22T01:35:41.849Z,91.52
2023-03-22T01:38:09.207Z,91.81
2023-03-22T01:40:42.091Z,91.93
2023-03-22T01:43:14.822Z,91.96
2023-03-22T01:45:43.214Z,92.16
2023-03-22T01:48:23.993Z,92.14
2023-03-22T01:51:03.138Z,92.11
2023-03-22T01:53:55.311Z,92.03
2023-03-22T01:56:27.146Z,92.21
2023-03-22T01:58:55.427Z,92.20
2023-03-22T02:01:30.201Z,92.07
2023-03-22T02:04:07.011Z,92.52
2023-03-22T02:06:38.027Z,92.69
2023-03-22T02:09:11.969Z,93.24
2023-03-22T02:11:42.683Z,93.21
2023-03-22T02:14:52.373Z,93.70
2023-03-22T02:17:59.452Z,94.03
2023-03-22T02:20:31.932Z,93.91
2023-03-22T02:23:23.952Z,94.12
2023-03-22T02:26:02.266Z,94.50
2023-03-22T02:28:41.187Z,94.43
2023-03-22T02:31:20.645Z,94.78
2023-03-22T02:33:59.291Z,94.61
2023-03-22T02:36:47.138Z,94.49
2023-03-22T02:39:28.881Z,94.84
2023-03-22T02:41:55.936Z,94.90
2023-03-22T02:44:32.909Z,95.05
2023-03-22T02:47:14.166Z,95.24
2023-03-22T02:49:47.628Z,95.28
2023-03-22T02:52:25.171Z,95.29
2023-03-22T02:55:01.093Z,95.51
2023-03-22T02:57:49.427Z,95.58
2023-03-22T03:00:19.036Z,95.10
2023-03-22T03:02:51.168Z,95.10
2023-03-22T03:05:19.798Z,95.22
2023-03-22T03:07:52.225Z,95.40
2023-03-22T03:10:22.025Z,95.28
2023-03-22T03:12:48.835Z,95.28
2023-03-22T03:15:18.550Z,95.21
2023-03-22T03:18:13.614Z,95.24
2023-03-22T03:20:56.319Z,95.58
2023-03-22T03:23:28.177Z,95.41
2023-03-22T03:26:02.902Z,95.47
2023-03-22T03:28:39.326Z,95.49
2023-03-22T03:31:17.350Z,95.49
2023-03-22T03:34:19.081Z,95.68
2023-03-22T03:36:57.881Z,95.81
2023-03-22T03:39:27.266Z,95.77
2023-03-22T03:41:56.657Z,95.98
2023-03-22T03:44:24.424Z,96.12
2023-03-22T03:46:52.682Z,95.99
2023-03-22T03:49:23.127Z,95.84
2023-03-22T03:51:54.671Z,95.73
2023-03-22T03:54:22.591Z,95.96
2023-03-22T03:56:49.386Z,95.98
2023-03-22T03:59:16.528Z,96.21
2023-03-22T04:01:49.941Z,96.42
2023-03-22T04:04:28.309Z,96.62
2023-03-22T04:07:02.379Z,96.41
2023-03-22T04:09:32.612Z,96.42
2023-03-22T04:12:11.631Z,96.74
2023-03-22T04:14:38.545Z,96.60
2023-03-22T04:17:13.548Z,96.67
2023-03-22T04:19:42.091Z,96.93
2023-03-22T04:22:14.435Z,96.83
2023-03-22T04:24:41.453Z,96.93
2023-03-22T04:27:08.555Z,96.40
2023-03-22T04:29:48.379Z,97.07
2023-03-22T04:32:41.109Z,97.30
2023-03-22T04:35:08.113Z,97.23
2023-03-22T04:37:34.610Z,97.30
2023-03-22T04:40:17.260Z,97.56
2023-03-22T04:42:57.505Z,97.52
2023-03-22T04:45:41.999Z,97.57
2023-03-22T04:48:11.072Z,97.61
2023-03-22T04:50:40.197Z,97.68
2023-03-22T04:53:08.089Z,97.57
2023-03-22T04:55:34.600Z,97.63
2023-03-22T04:58:01.751Z,97.92
2023-03-22T05:00:30.173Z,97.81
2023-03-22T05:02:58.250Z,98.24
2023-03-22T05:05:33.555Z,98.33
2023-03-22T05:08:02.323Z,98.24
2023-03-22T05:10:29.000Z,98.01
2023-03-22T05:12:57.056Z,98.08
2023-03-22T05:15:27.496Z,98.19
2023-03-22T05:17:55.604Z,98.28
2023-03-22T05:20:22.629Z,98.28
2023-03-22T05:23:02.493Z,98.15
2023-03-22T05:25:30.236Z,98.11
2023-03-22T05:28:01.369Z,98.15
2023-03-22T05:30:43.936Z,98.13
2023-03-22T05:33:27.785Z,97.84
2023-03-22T05:35:56.349Z,97.75
2023-03-22T05:38:24.591Z,97.79
2023-03-22T05:40:54.406Z,97.90
2023-03-22T05:43:21.352Z,97.77
2023-03-22T05:45:49.723Z,97.97
2023-03-22T05:48:36.189Z,97.81
2023-03-22T05:51:07.180Z,97.61
2023-03-22T05:53:34.431Z,97.83
2023-03-22T05:56:09.923Z,97.80
2023-03-22T05:58:37.574Z,97.63
2023-03-22T06:01:12.789Z,97.72
2023-03-22T06:03:45.094Z,97.60
2023-03-22T06:06:41.767Z,97.41
2023-03-22T06:09:17.551Z,97.34
2023-03-22T06:11:47.908Z,97.20
2023-03-22T06:14:15.804Z,97.01
2023-03-22T06:16:57.738Z,96.88
2023-03-22T06:19:25.508Z,96.85
2023-03-22T06:21:54.659Z,96.80
2023-03-22T06:24:24.111Z,96.96
2023-03-22T06:26:50.501Z,96.89
2023-03-22T06:29:17.396Z,96.98
2023-03-22T06:31:44.409Z,96.55
2023-03-22T06:34:11.004Z,96.53
2023-03-22T06:36:42.232Z,96.37
2023-03-22T06:39:13.093Z,96.10
2023-03-22T06:41:43.048Z,95.91
2023-03-22T06:44:09.609Z,95.84
2023-03-22T06:47:08.737Z,95.52
2023-03-22T06:49:52.793Z,95.35
2023-03-22T06:52:24.038Z,95.13
2023-03-22T06:54:51.678Z,95.37
2023-03-22T06:57:19.418Z,94.75
2023-03-22T06:59:45.903Z,94.50
2023-03-22T07:02:13.011Z,94.18
2023-03-22T07:04:42.983Z,94.57
2023-03-22T07:07:09.430Z,94.25
2023-03-22T07:09:36.077Z,94.08
2023-03-22T07:12:04.875Z,93.79
2023-03-22T07:14:31.532Z,93.45
2023-03-22T07:17:06.729Z,93.43
2023-03-22T07:19:33.695Z,92.81
2023-03-22T07:22:05.854Z,92.31
2023-03-22T07:24:32.809Z,92.56
2023-03-22T07:27:01.981Z,91.91
2023-03-22T07:29:28.993Z,91.12
2023-03-22T07:31:56.085Z,91.26
2023-03-22T07:34:27.026Z,91.20
2023-03-22T07:37:03.073Z,90.87
2023-03-22T07:39:30.717Z,90.58
2023-03-22T07:41:57.900Z,89.48
2023-03-22T07:44:24.737Z,88.58
2023-03-22T07:47:11.156Z,87.27
2023-03-22T07:49:45.907Z,87.24
2023-03-22T07:52:15.912Z,86.60
2023-03-22T07:54:42.371Z,86.68
2023-03-22T07:57:09.744Z,86.76
2023-03-22T07:59:44.105Z,86.05
2023-03-22T08:02:11.412Z,85.90
2023-03-22T08:04:44.268Z,85.86
2023-03-22T08:07:18.524Z,85.53
2023-03-22T08:09:46.040Z,85.66
2023-03-22T08:12:12.547Z,82.68
2023-03-22T08:14:39.945Z,82.59
2023-03-22T08:17:13.264Z,82.97
2023-03-22T08:19:40.263Z,83.74
2023-03-22T08:22:11.868Z,83.63
2023-03-22T08:24:56.975Z,83.49
2023-03-22T08:27:27.392Z,82.76
2023-03-22T08:29:55.781Z,83.28
2023-03-22T08:32:22.326Z,82.80
2023-03-22T08:34:48.827Z,82.84
2023-03-22T08:37:16.062Z,82.74
2023-03-22T08:39:44.272Z,82.92
2023-03-22T08:42:33.878Z,83.20
2023-03-22T08:45:02.347Z,82.79
2023-03-22T08:47:29.863Z,82.64
2023-03-22T08:50:00.913Z,82.48
2023-03-22T08:52:42.935Z,82.17
2023-03-22T08:55:26.097Z,81.76
2023-03-22T08:58:16.370Z,81.57
2023-03-22T09:00:54.569Z,82.13
2023-03-22T09:03:43.730Z,81.72
2023-03-22T09:06:10.951Z,78.50
2023-03-22T09:08:39.807Z,78.14
2023-03-22T09:11:11.773Z,78.21
2023-03-22T09:13:38.800Z,78.17
2023-03-22T09:16:08.736Z,76.95
2023-03-22T09:18:36.717Z,75.47
2023-03-22T09:21:11.166Z,75.05
2023-03-22T09:23:47.748Z,76.24
2023-03-22T09:26:16.529Z,75.97
2023-03-22T09:28:45.345Z,75.71
2023-03-22T09:31:12.171Z,76.24
2023-03-22T09:33:41.420Z,76.56
2023-03-22T09:36:09.278Z,76.57
2023-03-22T09:38:36.341Z,76.52
2023-03-22T09:41:07.212Z,77.36
2023-03-22T09:43:43.659Z,75.90
2023-03-22T09:46:17.661Z,76.27
2023-03-22T09:48:48.264Z,76.04
2023-03-22T09:51:23.021Z,75.99
2023-03-22T09:53:49.525Z,75.24
2023-03-22T09:56:29.697Z,73.17
2023-03-22T09:59:05.831Z,73.55
2023-03-22T10:01:57.378Z,73.88
2023-03-22T10:04:29.746Z,72.93
2023-03-22T10:07:27.234Z,72.91
2023-03-22T10:10:20.006Z,71.36
2023-03-22T10:12:53.600Z,72.14
2023-03-22T10:15:24.090Z,72.97
2023-03-22T10:17:55.064Z,71.47
2023-03-22T10:20:39.882Z,71.12
2023-03-22T10:23:13.659Z,71.34
2023-03-22T10:25:42.990Z,71.05
2023-03-22T10:28:37.231Z,71.00
2023-03-22T10:31:05.875Z,70.42
2023-03-22T10:33:39.759Z,70.50
2023-03-22T10:36:12.501Z,70.85
2023-03-22T10:38:46.364Z,70.41
2023-03-22T10:41:17.063Z,70.72
2023-03-22T10:43:45.556Z,70.39
2023-03-22T10:46:18.550Z,69.95
2023-03-22T10:48:48.154Z,70.24
2023-03-22T10:51:44.713Z,70.15
2023-03-22T10:54:16.267Z,70.04
2023-03-22T10:56:44.364Z,69.41
2023-03-22T10:59:48.313Z,69.00
2023-03-22T11:02:32.687Z,68.53
2023-03-22T11:05:01.832Z,68.56
2023-03-22T11:07:31.112Z,69.52
2023-03-22T11:10:10.528Z,69.85
2023-03-22T11:12:42.034Z,69.62
2023-03-22T11:15:27.864Z,69.29
2023-03-22T11:18:00.026Z,69.80
2023-03-22T11:20:28.191Z,69.07
2023-03-22T11:23:02.687Z,69.25
2023-03-22T11:25:31.432Z,68.82
2023-03-22T11:28:16.665Z,68.97
2023-03-22T11:30:59.386Z,70.04
2023-03-22T11:33:26.063Z,69.97
2023-03-22T11:35:57.874Z,69.55
2023-03-22T11:38:29.514Z,69.66
2023-03-22T11:41:01.365Z,70.29
2023-03-22T11:43:34.619Z,70.43
2023-03-22T11:46:01.805Z,70.00
2023-03-22T11:48:31.703Z,69.73
2023-03-22T11:51:08.685Z,69.31
2023-03-22T11:53:39.079Z,69.25
2023-03-22T11:56:07.473Z,68.63
2023-03-22T11:58:36.843Z,68.34
2023-03-22T12:01:04.813Z,67.73
2023-03-22T12:03:38.872Z,67.64
2023-03-22T12:06:17.536Z,67.92
2023-03-22T12:08:56.697Z,68.65
2023-03-22T12:11:37.584Z,67.20
2023-03-22T12:14:17.029Z,66.47
2023-03-22T12:16:54.779Z,66.54
2023-03-22T12:19:42.941Z,66.47
2023-03-22T12:22:15.973Z,65.89
2023-03-22T12:24:43.112Z,65.99
2023-03-22T12:27:23.178Z,67.27
2023-03-22T12:30:14.245Z,69.72
2023-03-22T12:32:44.625Z,70.08
2023-03-22T12:35:18.594Z,69.31
2023-03-22T12:37:50.735Z,69.29
2023-03-22T12:40:32.049Z,69.34
2023-03-22T12:43:11.382Z,70.17
2023-03-22T12:45:42.947Z,69.83
2023-03-22T12:48:18.840Z,69.49
2023-03-22T12:50:56.013Z,69.60
2023-03-22T12:53:26.743Z,68.73
2023-03-22T12:55:55.424Z,69.30
2023-03-22T12:58:25.508Z,69.32
2023-03-22T13:01:01.058Z,69.73
2023-03-22T13:03:37.675Z,69.56
2023-03-22T13:06:07.563Z,69.47
2023-03-22T13:09:16.143Z,69.66
2023-03-22T13:12:18.004Z,70.21
2023-03-22T13:14:50.669Z,68.93
2023-03-22T13:17:22.845Z,69.64
2023-03-22T13:20:13.478Z,70.00
2023-03-22T13:22:42.825Z,70.36
2023-03-22T13:25:29.161Z,70.90
2023-03-22T13:28:03.271Z,71.00
2023-03-22T13:30:36.187Z,70.75
2023-03-22T13:33:14.908Z,70.91
2023-03-22T13:35:48.750Z,71.12
2023-03-22T13:38:19.535Z,70.95
2023-03-22T13:40:53.303Z,70.75
2023-03-22T13:43:27.249Z,71.16
2023-03-22T13:46:03.963Z,70.93
2023-03-22T13:48:50.528Z,71.02
2023-03-22T13:51:23.360Z,71.11
2023-03-22T13:54:00.280Z,71.03
2023-03-22T13:56:57.026Z,71.05
2023-03-22T13:59:29.761Z,70.10
2023-03-22T14:02:04.769Z,70.71
2023-03-22T14:04:48.588Z,71.32
2023-03-22T14:07:14.993Z,71.06
2023-03-22T14:09:50.468Z,70.39
2023-03-22T14:12:22.752Z,71.11
2023-03-22T14:14:55.691Z,71.01
2023-03-22T14:18:03.052Z,70.84
2023-03-22T14:20:36.037Z,70.82
